sensor_id;sensor_type;location;lat;lon;timestamp;pressure;altitude;pressure_sealevel;temperature;humidity
59757;BME280;45631;51.962;5.974;2023-11-21T00:00:11;100877.72;;;5.93;100.00
59757;BME280;45631;51.962;5.974;2023-11-21T00:02:40;100875.31;;;5.88;100.00
59757;BME280;45631;51.962;5.974;2023-11-21T00:05:11;100875.38;;;5.87;100.00
59757;BME280;45631;51.962;5.974;2023-11-21T00:07:41;100873.75;;;5.84;100.00
59757;BME280;45631;51.962;5.974;2023-11-21T00:10:10;100873.84;;;5.83;100.00
59757;BME280;45631;51.962;5.974;2023-11-21T00:12:42;100879.13;;;5.81;100.00
59757;BME280;45631;51.962;5.974;2023-11-21T00:15:10;100886.16;;;5.79;100.00
59757;BME280;45631;51.962;5.974;2023-11-21T00:17:39;100887.16;;;5.76;100.00
59757;BME280;45631;51.962;5.974;2023-11-21T00:20:08;100885.47;;;5.75;100.00
59757;BME280;45631;51.962;5.974;2023-11-21T00:22:41;100886.25;;;5.78;100.00
59757;BME280;45631;51.962;5.974;2023-11-21T00:25:13;100888.91;;;5.76;100.00
59757;BME280;45631;51.962;5.974;2023-11-21T00:27:44;100890.69;;;5.75;100.00
59757;BME280;45631;51.962;5.974;2023-11-21T00:30:14;100887.22;;;5.75;100.00
59757;BME280;45631;51.962;5.974;2023-11-21T00:32:43;100889.06;;;5.73;100.00
59757;BME280;45631;51.962;5.974;2023-11-21T00:35:12;100895.97;;;5.74;100.00
59757;BME280;45631;51.962;5.974;2023-11-21T00:37:41;100892.50;;;5.73;100.00
59757;BME280;45631;51.962;5.974;2023-11-21T00:40:12;100901.22;;;5.74;100.00
59757;BME280;45631;51.962;5.974;2023-11-21T00:42:42;100898.59;;;5.74;100.00
59757;BME280;45631;51.962;5.974;2023-11-21T00:45:10;100903.81;;;5.74;100.00
59757;BME280;45631;51.962;5.974;2023-11-21T00:47:38;100902.88;;;5.75;100.00
59757;BME280;45631;51.962;5.974;2023-11-21T00:50:07;100896.75;;;5.76;100.00
59757;BME280;45631;51.962;5.974;2023-11-21T00:52:36;100904.56;;;5.76;100.00
59757;BME280;45631;51.962;5.974;2023-11-21T00:55:07;100914.09;;;5.77;100.00
59757;BME280;45631;51.962;5.974;2023-11-21T00:57:35;100909.72;;;5.78;100.00
59757;BME280;45631;51.962;5.974;2023-11-21T01:00:05;100914.09;;;5.77;100.00
59757;BME280;45631;51.962;5.974;2023-11-21T01:02:36;100913.13;;;5.80;100.00
59757;BME280;45631;51.962;5.974;2023-11-21T01:05:05;100917.38;;;5.82;100.00
59757;BME280;45631;51.962;5.974;2023-11-21T01:07:34;100923.44;;;5.83;100.00
59757;BME280;45631;51.962;5.974;2023-11-21T01:10:04;100925.97;;;5.84;100.00
59757;BME280;45631;51.962;5.974;2023-11-21T01:12:37;100928.50;;;5.86;100.00
59757;BME280;45631;51.962;5.974;2023-11-21T01:15:07;100927.59;;;5.87;100.00
59757;BME280;45631;51.962;5.974;2023-11-21T01:17:35;100933.59;;;5.89;100.00
59757;BME280;45631;51.962;5.974;2023-11-21T01:20:09;100940.44;;;5.91;100.00
59757;BME280;45631;51.962;5.974;2023-11-21T01:22:41;100949.97;;;5.92;100.00
59757;BME280;45631;51.962;5.974;2023-11-21T01:25:10;100951.59;;;5.95;100.00
59757;BME280;45631;51.962;5.974;2023-11-21T01:27:42;100959.31;;;5.98;100.00
59757;BME280;45631;51.962;5.974;2023-11-21T01:30:11;100960.94;;;6.01;100.00
59757;BME280;45631;51.962;5.974;2023-11-21T01:32:39;100963.50;;;6.02;100.00
59757;BME280;45631;51.962;5.974;2023-11-21T01:35:08;100965.19;;;6.03;100.00
59757;BME280;45631;51.962;5.974;2023-11-21T01:37:37;100970.28;;;6.06;100.00
59757;BME280;45631;51.962;5.974;2023-11-21T01:40:06;100971.00;;;6.10;100.00
59757;BME280;45631;51.962;5.974;2023-11-21T01:42:40;100958.78;;;6.11;100.00
59757;BME280;45631;51.962;5.974;2023-11-21T01:45:10;100967.47;;;6.11;100.00
59757;BME280;45631;51.962;5.974;2023-11-21T01:47:41;100965.63;;;6.13;100.00
59757;BME280;45631;51.962;5.974;2023-11-21T01:50:13;100962.03;;;6.16;100.00
59757;BME280;45631;51.962;5.974;2023-11-21T01:52:42;100960.22;;;6.18;100.00
59757;BME280;45631;51.962;5.974;2023-11-21T01:55:14;100959.25;;;6.20;100.00
59757;BME280;45631;51.962;5.974;2023-11-21T01:57:54;100960.84;;;6.23;100.00
59757;BME280;45631;51.962;5.974;2023-11-21T02:00:24;100963.41;;;6.24;100.00
59757;BME280;45631;51.962;5.974;2023-11-21T02:02:58;100960.66;;;6.28;100.00
59757;BME280;45631;51.962;5.974;2023-11-21T02:05:27;100953.56;;;6.30;100.00
59757;BME280;45631;51.962;5.974;2023-11-21T02:07:56;100955.28;;;6.31;100.00
59757;BME280;45631;51.962;5.974;2023-11-21T02:10:26;100959.53;;;6.33;100.00
59757;BME280;45631;51.962;5.974;2023-11-21T02:12:54;100961.22;;;6.34;100.00
59757;BME280;45631;51.962;5.974;2023-11-21T02:15:24;100964.59;;;6.36;100.00
59757;BME280;45631;51.962;5.974;2023-11-21T02:17:55;100967.13;;;6.38;100.00
59757;BME280;45631;51.962;5.974;2023-11-21T02:20:25;100967.84;;;6.41;100.00
59757;BME280;45631;51.962;5.974;2023-11-21T02:22:57;100974.78;;;6.42;100.00
59757;BME280;45631;51.962;5.974;2023-11-21T02:25:29;100973.91;;;6.42;100.00
59757;BME280;45631;51.962;5.974;2023-11-21T02:27:58;100980.84;;;6.43;100.00
59757;BME280;45631;51.962;5.974;2023-11-21T02:30:29;100973.91;;;6.42;100.00
59757;BME280;45631;51.962;5.974;2023-11-21T02:32:59;100982.63;;;6.42;100.00
59757;BME280;45631;51.962;5.974;2023-11-21T02:35:28;100985.09;;;6.46;100.00
59757;BME280;45631;51.962;5.974;2023-11-21T02:38:00;100986.78;;;6.47;100.00
59757;BME280;45631;51.962;5.974;2023-11-21T02:40:28;100974.63;;;6.46;100.00
59757;BME280;45631;51.962;5.974;2023-11-21T02:42:57;100987.63;;;6.47;100.00
59757;BME280;45631;51.962;5.974;2023-11-21T02:45:26;100981.47;;;6.48;100.00
59757;BME280;45631;51.962;5.974;2023-11-21T02:47:54;100985.81;;;6.49;100.00
59757;BME280;45631;51.962;5.974;2023-11-21T02:50:25;100982.25;;;6.50;100.00
59757;BME280;45631;51.962;5.974;2023-11-21T02:52:54;100983.03;;;6.52;100.00
59757;BME280;45631;51.962;5.974;2023-11-21T02:55:26;100989.81;;;6.56;100.00
59757;BME280;45631;51.962;5.974;2023-11-21T02:57:55;100988.91;;;6.57;100.00
59757;BME280;45631;51.962;5.974;2023-11-21T03:00:24;100987.06;;;6.59;100.00
59757;BME280;45631;51.962;5.974;2023-11-21T03:02:55;100990.47;;;6.62;100.00
59757;BME280;45631;51.962;5.974;2023-11-21T03:05:24;100983.38;;;6.64;100.00
59757;BME280;45631;51.962;5.974;2023-11-21T03:07:52;100987.47;;;6.69;100.00
59757;BME280;45631;51.962;5.974;2023-11-21T03:10:20;100982.25;;;6.69;100.00
59757;BME280;45631;51.962;5.974;2023-11-21T03:12:50;100994.41;;;6.70;100.00
59757;BME280;45631;51.962;5.974;2023-11-21T03:15:18;100990.03;;;6.71;100.00
59757;BME280;45631;51.962;5.974;2023-11-21T03:17:46;100991.78;;;6.70;100.00
59757;BME280;45631;51.962;5.974;2023-11-21T03:20:16;100996.88;;;6.73;100.00
59757;BME280;45631;51.962;5.974;2023-11-21T03:22:47;100992.44;;;6.75;100.00
59757;BME280;45631;51.962;5.974;2023-11-21T03:25:15;100989.75;;;6.77;100.00
59757;BME280;45631;51.962;5.974;2023-11-21T03:27:44;101003.66;;;6.77;100.00
59757;BME280;45631;51.962;5.974;2023-11-21T03:30:14;100997.44;;;6.80;100.00
59757;BME280;45631;51.962;5.974;2023-11-21T03:32:43;101003.59;;;6.79;100.00
59757;BME280;45631;51.962;5.974;2023-11-21T03:35:11;101009.75;;;6.78;100.00
59757;BME280;45631;51.962;5.974;2023-11-21T03:37:40;101012.19;;;6.81;100.00
59757;BME280;45631;51.962;5.974;2023-11-21T03:40:09;101020.97;;;6.80;100.00
59757;BME280;45631;51.962;5.974;2023-11-21T03:42:39;101020.13;;;6.80;100.00
59757;BME280;45631;51.962;5.974;2023-11-21T03:45:08;101021.81;;;6.81;100.00
59757;BME280;45631;51.962;5.974;2023-11-21T03:47:38;101021.81;;;6.81;100.00
59757;BME280;45631;51.962;5.974;2023-11-21T03:50:10;101020.03;;;6.81;100.00
59757;BME280;45631;51.962;5.974;2023-11-21T03:52:38;101021.66;;;6.84;100.00
59757;BME280;45631;51.962;5.974;2023-11-21T03:55:07;101019.84;;;6.86;100.00
59757;BME280;45631;51.962;5.974;2023-11-21T03:57:35;101018.91;;;6.87;100.00
59757;BME280;45631;51.962;5.974;2023-11-21T04:00:04;101020.69;;;6.86;100.00
59757;BME280;45631;51.962;5.974;2023-11-21T04:02:35;101024.94;;;6.89;100.00
59757;BME280;45631;51.962;5.974;2023-11-21T04:05:05;101025.75;;;6.89;100.00
59757;BME280;45631;51.962;5.974;2023-11-21T04:07:34;101018.81;;;6.88;100.00
59757;BME280;45631;51.962;5.974;2023-11-21T04:10:03;101017.91;;;6.89;100.00
59757;BME280;45631;51.962;5.974;2023-11-21T04:12:34;101023.22;;;6.88;100.00
59757;BME280;45631;51.962;5.974;2023-11-21T04:15:03;101028.44;;;6.88;100.00
59757;BME280;45631;51.962;5.974;2023-11-21T04:17:31;101040.63;;;6.89;100.00
59757;BME280;45631;51.962;5.974;2023-11-21T04:19:59;101041.44;;;6.89;100.00
59757;BME280;45631;51.962;5.974;2023-11-21T04:22:29;101045.78;;;6.90;100.00
59757;BME280;45631;51.962;5.974;2023-11-21T04:24:57;101046.59;;;6.91;100.00
59757;BME280;45631;51.962;5.974;2023-11-21T04:27:25;101056.22;;;6.90;100.00
59757;BME280;45631;51.962;5.974;2023-11-21T04:29:53;101052.69;;;6.91;100.00
59757;BME280;45631;51.962;5.974;2023-11-21T04:32:21;101057.94;;;6.91;100.00
59757;BME280;45631;51.962;5.974;2023-11-21T04:34:49;101064.78;;;6.94;100.00
59757;BME280;45631;51.962;5.974;2023-11-21T04:37:17;101061.16;;;6.97;100.00
59757;BME280;45631;51.962;5.974;2023-11-21T04:39:47;101069.00;;;6.97;100.00
59757;BME280;45631;51.962;5.974;2023-11-21T04:42:15;101063.72;;;6.98;100.00
59757;BME280;45631;51.962;5.974;2023-11-21T04:44:43;101068.88;;;7.00;100.00
59757;BME280;45631;51.962;5.974;2023-11-21T04:47:11;101070.69;;;6.98;100.00
59757;BME280;45631;51.962;5.974;2023-11-21T04:49:42;101078.53;;;6.98;100.00
59757;BME280;45631;51.962;5.974;2023-11-21T04:52:11;101074.19;;;6.98;100.00
59757;BME280;45631;51.962;5.974;2023-11-21T04:54:39;101080.25;;;6.99;100.00
59757;BME280;45631;51.962;5.974;2023-11-21T04:57:08;101089.00;;;6.98;100.00
59757;BME280;45631;51.962;5.974;2023-11-21T04:59:36;101093.25;;;7.00;100.00
59757;BME280;45631;51.962;5.974;2023-11-21T05:02:04;101098.41;;;7.02;100.00
59757;BME280;45631;51.962;5.974;2023-11-21T05:04:33;101096.72;;;7.01;100.00
59757;BME280;45631;51.962;5.974;2023-11-21T05:07:04;101102.00;;;6.99;100.00
59757;BME280;45631;51.962;5.974;2023-11-21T05:09:32;101100.25;;;7.00;100.00
59757;BME280;45631;51.962;5.974;2023-11-21T05:12:01;101101.94;;;7.01;100.00
59757;BME280;45631;51.962;5.974;2023-11-21T05:14:31;101101.94;;;7.01;100.00
59757;BME280;45631;51.962;5.974;2023-11-21T05:17:00;101111.47;;;7.02;100.00
59757;BME280;45631;51.962;5.974;2023-11-21T05:19:28;101102.81;;;7.01;100.00
59757;BME280;45631;51.962;5.974;2023-11-21T05:21:59;101107.16;;;7.01;100.00
59757;BME280;45631;51.962;5.974;2023-11-21T05:24:31;101112.34;;;7.02;100.00
59757;BME280;45631;51.962;5.974;2023-11-21T05:26:59;101116.63;;;7.03;100.00
59757;BME280;45631;51.962;5.974;2023-11-21T05:29:27;101113.19;;;7.03;100.00
59757;BME280;45631;51.962;5.974;2023-11-21T05:31:58;101118.41;;;7.03;100.00
59757;BME280;45631;51.962;5.974;2023-11-21T05:34:27;101123.50;;;7.06;100.00
59757;BME280;45631;51.962;5.974;2023-11-21T05:36:55;101126.13;;;7.06;100.00
59757;BME280;45631;51.962;5.974;2023-11-21T05:39:25;101127.81;;;7.07;100.00
59757;BME280;45631;51.962;5.974;2023-11-21T05:41:54;101133.97;;;7.06;100.00
59757;BME280;45631;51.962;5.974;2023-11-21T05:44:24;101136.56;;;7.06;100.00
59757;BME280;45631;51.962;5.974;2023-11-21T05:46:52;101147.03;;;7.06;100.00
59757;BME280;45631;51.962;5.974;2023-11-21T05:49:22;101140.13;;;7.05;100.00
59757;BME280;45631;51.962;5.974;2023-11-21T05:51:53;101148.97;;;7.02;100.00
59757;BME280;45631;51.962;5.974;2023-11-21T05:54:21;101157.66;;;7.03;100.00
59757;BME280;45631;51.962;5.974;2023-11-21T05:56:50;101156.81;;;7.02;100.00
59757;BME280;45631;51.962;5.974;2023-11-21T05:59:18;101167.19;;;7.04;100.00
59757;BME280;45631;51.962;5.974;2023-11-21T06:01:49;101163.59;;;7.06;100.00
59757;BME280;45631;51.962;5.974;2023-11-21T06:04:17;101165.28;;;7.07;100.00
59757;BME280;45631;51.962;5.974;2023-11-21T06:06:51;101170.56;;;7.06;100.00
59757;BME280;45631;51.962;5.974;2023-11-21T06:09:19;101171.38;;;7.08;100.00
59757;BME280;45631;51.962;5.974;2023-11-21T06:11:48;101174.75;;;7.10;100.00
59757;BME280;45631;51.962;5.974;2023-11-21T06:14:16;101173.84;;;7.11;100.00
59757;BME280;45631;51.962;5.974;2023-11-21T06:16:45;101174.63;;;7.13;100.00
59757;BME280;45631;51.962;5.974;2023-11-21T06:19:13;101179.00;;;7.13;100.00
59757;BME280;45631;51.962;5.974;2023-11-21T06:21:45;101173.78;;;7.13;100.00
59757;BME280;45631;51.962;5.974;2023-11-21T06:24:15;101177.19;;;7.15;100.00
59757;BME280;45631;51.962;5.974;2023-11-21T06:26:43;101184.94;;;7.16;100.00
59757;BME280;45631;51.962;5.974;2023-11-21T06:29:12;101185.72;;;7.18;100.00
59757;BME280;45631;51.962;5.974;2023-11-21T06:31:40;101187.50;;;7.18;100.00
59757;BME280;45631;51.962;5.974;2023-11-21T06:34:08;101193.56;;;7.18;100.00
59757;BME280;45631;51.962;5.974;2023-11-21T06:36:36;101199.59;;;7.20;100.00
59757;BME280;45631;51.962;5.974;2023-11-21T06:39:04;101196.97;;;7.20;100.00
59757;BME280;45631;51.962;5.974;2023-11-21T06:41:39;101197.03;;;7.19;100.00
59757;BME280;45631;51.962;5.974;2023-11-21T06:44:07;101202.22;;;7.20;100.00
59757;BME280;45631;51.962;5.974;2023-11-21T06:46:35;101205.59;;;7.22;100.00
59757;BME280;45631;51.962;5.974;2023-11-21T06:49:05;101211.63;;;7.24;100.00
59757;BME280;45631;51.962;5.974;2023-11-21T06:51:33;101208.34;;;7.19;100.00
59757;BME280;45631;51.962;5.974;2023-11-21T06:54:01;101214.41;;;7.20;100.00
59757;BME280;45631;51.962;5.974;2023-11-21T06:56:30;101223.81;;;7.24;100.00
59757;BME280;45631;51.962;5.974;2023-11-21T06:58:59;101218.59;;;7.24;100.00
59757;BME280;45631;51.962;5.974;2023-11-21T07:01:27;101217.00;;;7.21;100.00
59757;BME280;45631;51.962;5.974;2023-11-21T07:03:57;101223.78;;;7.25;100.00
59757;BME280;45631;51.962;5.974;2023-11-21T07:06:25;101219.47;;;7.24;100.00
59757;BME280;45631;51.962;5.974;2023-11-21T07:08:54;101222.84;;;7.26;100.00
59757;BME280;45631;51.962;5.974;2023-11-21T07:11:22;101222.81;;;7.28;100.00
59757;BME280;45631;51.962;5.974;2023-11-21T07:13:50;101234.88;;;7.31;100.00
59757;BME280;45631;51.962;5.974;2023-11-21T07:16:20;101246.97;;;7.33;100.00
59757;BME280;45631;51.962;5.974;2023-11-21T07:18:49;101248.66;;;7.34;100.00
59757;BME280;45631;51.962;5.974;2023-11-21T07:21:17;101257.34;;;7.35;100.00
59757;BME280;45631;51.962;5.974;2023-11-21T07:23:46;101259.94;;;7.36;100.00
59757;BME280;45631;51.962;5.974;2023-11-21T07:26:14;101263.38;;;7.37;100.00
59757;BME280;45631;51.962;5.974;2023-11-21T07:28:42;101269.38;;;7.39;100.00
59757;BME280;45631;51.962;5.974;2023-11-21T07:31:10;101271.00;;;7.41;100.00
59757;BME280;45631;51.962;5.974;2023-11-21T07:33:40;101286.59;;;7.44;100.00
59757;BME280;45631;51.962;5.974;2023-11-21T07:36:09;101277.97;;;7.42;100.00
59757;BME280;45631;51.962;5.974;2023-11-21T07:38:37;101280.44;;;7.45;100.00
59757;BME280;45631;51.962;5.974;2023-11-21T07:41:05;101277.75;;;7.47;100.00
59757;BME280;45631;51.962;5.974;2023-11-21T07:43:48;101290.78;;;7.49;100.00
59757;BME280;45631;51.962;5.974;2023-11-21T07:46:16;101296.00;;;7.49;100.00
59757;BME280;45631;51.962;5.974;2023-11-21T07:48:46;101286.31;;;7.51;100.00
59757;BME280;45631;51.962;5.974;2023-11-21T07:51:14;101291.53;;;7.51;100.00
59757;BME280;45631;51.962;5.974;2023-11-21T07:53:44;101288.09;;;7.50;100.00
59757;BME280;45631;51.962;5.974;2023-11-21T07:56:13;101296.63;;;7.54;100.00
59757;BME280;45631;51.962;5.974;2023-11-21T07:58:46;101307.06;;;7.55;100.00
59757;BME280;45631;51.962;5.974;2023-11-21T08:01:16;101306.03;;;7.58;100.00
59757;BME280;45631;51.962;5.974;2023-11-21T08:03:46;101315.47;;;7.62;100.00
59757;BME280;45631;51.962;5.974;2023-11-21T08:06:18;101317.09;;;7.65;100.00
59757;BME280;45631;51.962;5.974;2023-11-21T08:08:46;101318.72;;;7.67;100.00
59757;BME280;45631;51.962;5.974;2023-11-21T08:11:14;101325.59;;;7.70;100.00
59757;BME280;45631;51.962;5.974;2023-11-21T08:13:44;101327.16;;;7.74;100.00
59757;BME280;45631;51.962;5.974;2023-11-21T08:16:12;101339.34;;;7.75;100.00
59757;BME280;45631;51.962;5.974;2023-11-21T08:18:41;101341.81;;;7.78;100.00
59757;BME280;45631;51.962;5.974;2023-11-21T08:21:12;101345.22;;;7.80;100.00
59757;BME280;45631;51.962;5.974;2023-11-21T08:23:40;101351.22;;;7.82;100.00
59757;BME280;45631;51.962;5.974;2023-11-21T08:26:08;101353.75;;;7.84;100.00
59757;BME280;45631;51.962;5.974;2023-11-21T08:28:36;101356.31;;;7.85;100.00
59757;BME280;45631;51.962;5.974;2023-11-21T08:31:04;101365.72;;;7.89;100.00
59757;BME280;45631;51.962;5.974;2023-11-21T08:33:32;101366.53;;;7.91;100.00
59757;BME280;45631;51.962;5.974;2023-11-21T08:36:01;101369.94;;;7.93;100.00
59757;BME280;45631;51.962;5.974;2023-11-21T08:38:35;101380.41;;;7.93;100.00
59757;BME280;45631;51.962;5.974;2023-11-21T08:41:05;101382.97;;;7.95;100.00
59757;BME280;45631;51.962;5.974;2023-11-21T08:43:35;101381.03;;;7.99;100.00
59757;BME280;45631;51.962;5.974;2023-11-21T08:46:07;101385.34;;;8.00;100.00
59757;BME280;45631;51.962;5.974;2023-11-21T08:48:36;101375.78;;;7.99;100.00
59757;BME280;45631;51.962;5.974;2023-11-21T08:51:05;101378.28;;;8.02;100.00
59757;BME280;45631;51.962;5.974;2023-11-21T08:53:33;101383.47;;;8.03;100.00
59757;BME280;45631;51.962;5.974;2023-11-21T08:56:03;101382.47;;;8.06;100.00
59757;BME280;45631;51.962;5.974;2023-11-21T08:58:31;101385.84;;;8.08;100.00
59757;BME280;45631;51.962;5.974;2023-11-21T09:01:00;101386.66;;;8.10;100.00
59757;BME280;45631;51.962;5.974;2023-11-21T09:03:28;101385.59;;;8.14;100.00
59757;BME280;45631;51.962;5.974;2023-11-21T09:05:56;101390.75;;;8.16;100.00
59757;BME280;45631;51.962;5.974;2023-11-21T09:08:23;101395.00;;;8.18;100.00
59757;BME280;45631;51.962;5.974;2023-11-21T09:10:51;101400.94;;;8.22;100.00
59757;BME280;45631;51.962;5.974;2023-11-21T09:13:21;101406.09;;;8.23;100.00
59757;BME280;45631;51.962;5.974;2023-11-21T09:15:52;101407.66;;;8.27;100.00
59757;BME280;45631;51.962;5.974;2023-11-21T09:18:20;101411.06;;;8.29;100.00
59757;BME280;45631;51.962;5.974;2023-11-21T09:20:48;101409.28;;;8.30;100.00
59757;BME280;45631;51.962;5.974;2023-11-21T09:23:16;101420.47;;;8.34;100.00
59757;BME280;45631;51.962;5.974;2023-11-21T09:25:44;101425.66;;;8.35;100.00
59757;BME280;45631;51.962;5.974;2023-11-21T09:28:13;101431.69;;;8.37;100.00
59757;BME280;45631;51.962;5.974;2023-11-21T09:30:43;101430.81;;;8.37;100.00
59757;BME280;45631;51.962;5.974;2023-11-21T09:33:11;101437.75;;;8.38;100.00
59757;BME280;45631;51.962;5.974;2023-11-21T09:35:39;101443.00;;;8.38;100.00
59757;BME280;45631;51.962;5.974;2023-11-21T09:38:07;101447.34;;;8.39;100.00
59757;BME280;45631;51.962;5.974;2023-11-21T09:40:38;101446.41;;;8.40;100.00
59757;BME280;45631;51.962;5.974;2023-11-21T09:43:09;101454.13;;;8.43;100.00
59757;BME280;45631;51.962;5.974;2023-11-21T09:45:47;101459.38;;;8.43;100.00
59757;BME280;45631;51.962;5.974;2023-11-21T09:48:17;101468.03;;;8.45;100.00
59757;BME280;45631;51.962;5.974;2023-11-21T09:50:47;101460.06;;;8.48;100.00
59757;BME280;45631;51.962;5.974;2023-11-21T09:53:20;101460.75;;;8.52;100.00
59757;BME280;45631;51.962;5.974;2023-11-21T09:55:51;101469.31;;;8.55;100.00
59757;BME280;45631;51.962;5.974;2023-11-21T09:58:20;101475.31;;;8.57;100.00
59757;BME280;45631;51.962;5.974;2023-11-21T10:00:53;101480.56;;;8.57;100.00
59757;BME280;45631;51.962;5.974;2023-11-21T10:03:22;101487.25;;;8.65;100.00
59757;BME280;45631;51.962;5.974;2023-11-21T10:05:53;101493.97;;;8.70;100.00
59757;BME280;45631;51.962;5.974;2023-11-21T10:08:27;101492.03;;;8.74;100.00
59757;BME280;45631;51.962;5.974;2023-11-21T10:11:14;101502.41;;;8.77;100.00
59757;BME280;45631;51.962;5.974;2023-11-21T10:13:44;101493.47;;;8.81;100.00
59757;BME280;45631;51.962;5.974;2023-11-21T10:16:19;101494.16;;;8.85;100.00
59757;BME280;45631;51.962;5.974;2023-11-21T10:18:52;101497.81;;;8.82;100.00
59757;BME280;45631;51.962;5.974;2023-11-21T10:21:29;101505.28;;;8.90;100.00
59757;BME280;45631;51.962;5.974;2023-11-21T10:23:57;101493.66;;;8.95;100.00
59757;BME280;45631;51.962;5.974;2023-11-21T10:26:26;101503.00;;;9.01;100.00
59757;BME280;45631;51.962;5.974;2023-11-21T10:29:06;101508.81;;;9.08;100.00
59757;BME280;45631;51.962;5.974;2023-11-21T10:31:36;101509.50;;;9.11;100.00
59757;BME280;45631;51.962;5.974;2023-11-21T10:34:14;101519.94;;;9.13;100.00
59757;BME280;45631;51.962;5.974;2023-11-21T10:36:43;101518.94;;;9.16;100.00
59757;BME280;45631;51.962;5.974;2023-11-21T10:39:14;101521.47;;;9.17;100.00
59757;BME280;45631;51.962;5.974;2023-11-21T10:41:45;101520.41;;;9.21;100.00
59757;BME280;45631;51.962;5.974;2023-11-21T10:44:14;101517.56;;;9.26;100.00
59757;BME280;45631;51.962;5.974;2023-11-21T10:46:48;101515.56;;;9.31;100.00
59757;BME280;45631;51.962;5.974;2023-11-21T10:49:18;101513.72;;;9.33;100.00
59757;BME280;45631;51.962;5.974;2023-11-21T10:51:46;101516.09;;;9.38;100.00
59757;BME280;45631;51.962;5.974;2023-11-21T10:54:18;101516.72;;;9.43;100.00
59757;BME280;45631;51.962;5.974;2023-11-21T10:56:49;101537.56;;;9.46;100.00
59757;BME280;45631;51.962;5.974;2023-11-21T10:59:18;101539.44;;;9.44;100.00
59757;BME280;45631;51.962;5.974;2023-11-21T11:01:50;101537.56;;;9.46;100.00
59757;BME280;45631;51.962;5.974;2023-11-21T11:04:19;101540.06;;;9.49;100.00
59757;BME280;45631;51.962;5.974;2023-11-21T11:06:53;101541.00;;;9.48;100.00
59757;BME280;45631;51.962;5.974;2023-11-21T11:09:23;101545.44;;;9.46;100.00
59757;BME280;45631;51.962;5.974;2023-11-21T11:11:51;101555.34;;;9.41;100.00
59757;BME280;45631;51.962;5.974;2023-11-21T11:14:21;101564.06;;;9.41;100.00
59757;BME280;45631;51.962;5.974;2023-11-21T11:16:54;101554.41;;;9.42;100.00
59757;BME280;45631;51.962;5.974;2023-11-21T11:19:23;101561.38;;;9.43;100.00
59757;BME280;45631;51.962;5.974;2023-11-21T11:21:59;101569.31;;;9.41;100.00
59757;BME280;45631;51.962;5.974;2023-11-21T11:24:50;101575.66;;;9.37;100.00
59757;BME280;45631;51.962;5.974;2023-11-21T11:27:30;101573.78;;;9.39;100.00
59757;BME280;45631;51.962;5.974;2023-11-21T11:30:13;101578.34;;;9.36;100.00
59757;BME280;45631;51.962;5.974;2023-11-21T11:32:52;101581.13;;;9.33;100.00
59757;BME280;45631;51.962;5.974;2023-11-21T11:35:26;101586.22;;;9.36;100.00
59757;BME280;45631;51.962;5.974;2023-11-21T11:38:00;101587.97;;;9.35;100.00
59757;BME280;45631;51.962;5.974;2023-11-21T11:40:38;101590.06;;;9.28;100.00
59757;BME280;45631;51.962;5.974;2023-11-21T11:43:07;101589.84;;;9.33;100.00
59757;BME280;45631;51.962;5.974;2023-11-21T11:45:35;101588.94;;;9.34;100.00
59757;BME280;45631;51.962;5.974;2023-11-21T11:48:11;101593.03;;;9.40;100.00
59757;BME280;45631;51.962;5.974;2023-11-21T11:50:53;101593.94;;;9.39;100.00
59757;BME280;45631;51.962;5.974;2023-11-21T11:53:35;101599.75;;;9.45;100.00
59757;BME280;45631;51.962;5.974;2023-11-21T11:56:22;101606.91;;;9.42;100.00
59757;BME280;45631;51.962;5.974;2023-11-21T11:58:53;101607.16;;;9.37;100.00
59757;BME280;45631;51.962;5.974;2023-11-21T12:01:24;101611.56;;;9.37;100.00
59757;BME280;45631;51.962;5.974;2023-11-21T12:04:25;101618.06;;;9.47;100.00
59757;BME280;45631;51.962;5.974;2023-11-21T12:07:02;101604.16;;;9.45;100.00
59757;BME280;45631;51.962;5.974;2023-11-21T12:09:31;101616.06;;;9.52;100.00
59757;BME280;45631;51.962;5.974;2023-11-21T12:12:00;101618.94;;;9.47;100.00
59757;BME280;45631;51.962;5.974;2023-11-21T12:14:30;101621.47;;;9.49;100.00
59757;BME280;45631;51.962;5.974;2023-11-21T12:16:58;101630.44;;;9.45;100.00
59757;BME280;45631;51.962;5.974;2023-11-21T12:19:28;101629.06;;;9.36;100.00
59757;BME280;45631;51.962;5.974;2023-11-21T12:21:57;101629.16;;;9.35;100.00
59757;BME280;45631;51.962;5.974;2023-11-21T12:24:25;101635.22;;;9.35;100.00
59757;BME280;45631;51.962;5.974;2023-11-21T12:26:55;101638.09;;;9.30;100.00
59757;BME280;45631;51.962;5.974;2023-11-21T12:29:23;101637.81;;;9.37;100.00
59757;BME280;45631;51.962;5.974;2023-11-21T12:31:51;101644.91;;;9.35;100.00
59757;BME280;45631;51.962;5.974;2023-11-21T12:34:20;101649.91;;;9.39;100.00
59757;BME280;45631;51.962;5.974;2023-11-21T12:36:51;101656.03;;;9.40;100.00
59757;BME280;45631;51.962;5.974;2023-11-21T12:39:22;101660.72;;;9.33;100.00
59757;BME280;45631;51.962;5.974;2023-11-21T12:41:50;101656.31;;;9.34;100.00
59757;BME280;45631;51.962;5.974;2023-11-21T12:44:18;101667.75;;;9.33;100.00
59757;BME280;45631;51.962;5.974;2023-11-21T12:46:49;101660.66;;;9.35;100.00
59757;BME280;45631;51.962;5.974;2023-11-21T12:49:19;101665.13;;;9.33;100.00
59757;BME280;45631;51.962;5.974;2023-11-21T12:51:48;101667.19;;;9.26;100.00
59757;BME280;45631;51.962;5.974;2023-11-21T12:54:18;101671.72;;;9.22;100.00
59757;BME280;45631;51.962;5.974;2023-11-21T12:56:46;101670.88;;;9.22;100.00
59757;BME280;45631;51.962;5.974;2023-11-21T12:59:20;101674.56;;;9.18;100.00
59757;BME280;45631;51.962;5.974;2023-11-21T13:01:49;101669.16;;;9.21;100.00
59757;BME280;45631;51.962;5.974;2023-11-21T13:04:18;101676.13;;;9.22;100.00